Time;durP1;ratioP1;P1;durP2;ratioP2;P2;SDS_P1;SDS_P2;PMS_P1;PMS_P2;Temp;Humidity;BMP_temperature;BMP_pressure;BME280_temperature;BME280_humidity;BME280_pressure;Samples;Min_cycle;Max_cycle;Signal;HPM_P1;HPM_P2
2023/12/05 00:01:18;;;;;;;24.33;14.47;;;;;;;-3.31;100.00;95076.78;7398826;19;20414;-95
2023/12/05 00:03:46;;;;;;;22.43;13.50;;;;;;;-3.43;100.00;95058.22;7401395;19;20366;-96
2023/12/05 00:06:13;;;;;;;24.73;17.17;;;;;;;-2.93;100.00;95141.03;7398921;19;20386;-95
2023/12/05 00:08:41;;;;;;;26.70;14.77;;;;;;;-3.09;100.00;95115.25;7400223;19;20410;-95
2023/12/05 00:11:08;;;;;;;23.60;16.17;;;;;;;-3.67;100.00;95029.50;7399515;19;20413;-94
2023/12/05 00:13:35;;;;;;;27.83;16.40;;;;;;;-3.47;100.00;95054.59;7399142;19;20379;-94
2023/12/05 00:16:03;;;;;;;28.87;16.40;;;;;;;-3.71;100.00;95035.38;7399185;19;20403;-94
2023/12/05 00:18:31;;;;;;;21.03;14.17;;;;;;;-3.68;100.00;95022.84;7398984;19;20422;-95
2023/12/05 00:20:58;;;;;;;26.73;16.70;;;;;;;-3.91;100.00;94982.16;7398896;19;20418;-94
2023/12/05 00:23:26;;;;;;;23.23;15.30;;;;;;;-3.80;100.00;94995.78;7398957;19;20390;-94
2023/12/05 00:25:53;;;;;;;21.80;14.27;;;;;;;-3.33;100.00;95052.41;7398292;19;20659;-95
2023/12/05 00:28:21;;;;;;;23.17;15.27;;;;;;;-3.68;100.00;94997.19;7396768;19;20403;-95
2023/12/05 00:30:48;;;;;;;24.10;14.37;;;;;;;-3.40;100.00;95010.78;7398197;19;20406;-95
2023/12/05 00:33:16;;;;;;;26.50;16.30;;;;;;;-4.21;100.00;94909.09;7398344;19;20863;-94
2023/12/05 00:35:43;;;;;;;21.90;15.20;;;;;;;-3.32;100.00;95028.31;7399007;19;20398;-95
2023/12/05 00:38:11;;;;;;;24.60;16.60;;;;;;;-3.18;100.00;95059.47;7400023;19;20391;-95
2023/12/05 00:40:39;;;;;;;23.77;16.27;;;;;;;-3.60;100.00;94986.53;7398467;19;20402;-94
2023/12/05 00:43:06;;;;;;;21.73;15.80;;;;;;;-4.23;100.00;94911.13;7399849;19;20762;-94
2023/12/05 00:45:34;;;;;;;24.97;16.57;;;;;;;-3.83;100.00;94997.06;7399603;19;20374;-95
2023/12/05 00:48:01;;;;;;;29.60;17.07;;;;;;;-3.85;100.00;94969.13;7396784;19;20393;-94
2023/12/05 00:50:29;;;;;;;23.87;15.00;;;;;;;-3.74;100.00;94982.03;7398073;19;20374;-94
2023/12/05 00:53:06;;;;;;;31.13;18.00;;;;;;;-3.63;100.00;95017.78;7397660;19;20430;-95
2023/12/05 00:55:35;;;;;;;25.80;17.17;;;;;;;-3.43;100.00;95035.13;7397337;19;20381;-95
2023/12/05 00:58:02;;;;;;;24.17;14.73;;;;;;;-3.37;100.00;95061.63;7397522;19;20461;-94
2023/12/05 01:00:30;;;;;;;25.63;17.27;;;;;;;-3.44;100.00;95038.72;7395334;19;20386;-95
2023/12/05 01:02:57;;;;;;;23.13;16.07;;;;;;;-3.62;100.00;95019.31;7397395;19;20864;-94
2023/12/05 01:05:25;;;;;;;24.53;15.07;;;;;;;-3.52;100.00;95013.50;7397551;19;20391;-94
2023/12/05 01:07:52;;;;;;;26.23;15.97;;;;;;;-3.53;100.00;95019.66;7397452;19;20397;-94
2023/12/05 01:10:20;;;;;;;28.30;18.20;;;;;;;-3.63;100.00;94999.06;7397223;19;20371;-93
2023/12/05 01:12:47;;;;;;;24.00;17.13;;;;;;;-3.58;100.00;94986.28;7397221;19;20392;-95
2023/12/05 01:15:15;;;;;;;26.33;18.57;;;;;;;-3.59;100.00;94977.81;7398197;19;20401;-94
2023/12/05 01:17:43;;;;;;;26.57;15.50;;;;;;;-3.77;100.00;94973.03;7397974;19;20385;-94
2023/12/05 01:20:13;;;;;;;25.93;16.70;;;;;;;-3.75;100.00;94972.81;7397526;19;20701;-94
2023/12/05 01:22:40;;;;;;;25.27;14.53;;;;;;;-3.89;100.00;94955.28;7398063;19;20386;-94
2023/12/05 01:25:08;;;;;;;24.63;15.57;;;;;;;-3.70;100.00;94983.88;7397835;19;20387;-94
2023/12/05 01:27:35;;;;;;;23.60;16.53;;;;;;;-3.55;100.00;94990.91;7395895;19;20375;-94
2023/12/05 01:30:04;;;;;;;22.03;16.30;;;;;;;-3.40;100.00;95010.78;7397426;19;20714;-94
2023/12/05 01:32:32;;;;;;;35.43;17.93;;;;;;;-3.39;100.00;95013.13;7394849;19;20418;-94
2023/12/05 01:34:59;;;;;;;28.47;17.00;;;;;;;-3.92;100.00;94947.28;7397054;19;20385;-95
2023/12/05 01:37:27;;;;;;;24.40;14.93;;;;;;;-3.64;100.00;94998.28;7396783;19;20362;-94
2023/12/05 01:39:54;;;;;;;28.50;16.43;;;;;;;-3.33;100.00;95006.25;7399522;19;20395;-95
2023/12/05 01:42:22;;;;;;;22.73;15.57;;;;;;;-3.08;100.00;95042.38;7401876;19;20413;-94
2023/12/05 01:44:49;;;;;;;30.47;17.33;;;;;;;-2.82;100.00;95071.59;7404731;19;20386;-94
2023/12/05 01:47:16;;;;;;;31.97;16.40;;;;;;;-3.27;100.00;95018.88;7402546;19;20396;-94
2023/12/05 01:49:46;;;;;;;35.43;17.30;;;;;;;-3.20;100.00;95034.06;7403941;19;20377;-94
2023/12/05 01:52:17;;;;;;;29.10;16.63;;;;;;;-3.40;100.00;95016.69;7402164;19;20413;-94
2023/12/05 01:54:44;;;;;;;21.00;15.57;;;;;;;-2.96;100.00;95078.16;7401125;19;20505;-93
2023/12/05 01:57:12;;;;;;;24.40;15.23;;;;;;;-2.85;100.00;95099.53;7403577;19;20389;-94
2023/12/05 01:59:39;;;;;;;26.17;15.67;;;;;;;-3.42;100.00;95036.69;7404220;19;20398;-94
2023/12/05 02:02:07;;;;;;;23.13;15.73;;;;;;;-3.40;100.00;95026.19;7400738;19;20928;-94
2023/12/05 02:04:37;;;;;;;25.87;16.73;;;;;;;-3.61;100.00;95014.97;7403554;19;20398;-95
2023/12/05 02:07:06;;;;;;;34.43;18.10;;;;;;;-3.23;100.00;95052.53;7401548;19;20382;-93
2023/12/05 02:09:40;;;;;;;24.50;16.90;;;;;;;-3.55;100.00;95001.19;7403409;19;20394;-94
2023/12/05 02:12:07;;;;;;;22.87;15.93;;;;;;;-3.12;100.00;95058.50;7400438;19;20409;-94
2023/12/05 02:14:35;;;;;;;27.03;17.70;;;;;;;-3.24;100.00;95048.41;7402767;19;20377;-94
2023/12/05 02:17:12;;;;;;;25.10;15.87;;;;;;;-3.48;100.00;95019.72;7404333;19;20864;-94
2023/12/05 02:19:49;;;;;;;32.83;16.63;;;;;;;-2.96;100.00;95127.69;7402522;19;20373;-95
2023/12/05 02:23:05;;;;;;;22.90;16.00;;;;;;;-3.74;100.00;94997.41;7399938;19;20433;-94
2023/12/05 02:26:00;;;;;;;28.17;14.80;;;;;;;-2.82;100.00;95117.81;7400775;19;20383;-96
2023/12/05 02:28:27;;;;;;;24.47;13.57;;;;;;;-3.17;100.00;95069.50;7397919;19;20376;-94
2023/12/05 02:30:55;;;;;;;28.67;15.87;;;;;;;-3.45;100.00;95008.97;7401724;19;20867;-96
2023/12/05 02:33:22;;;;;;;22.87;15.93;;;;;;;-3.27;100.00;95057.34;7403769;19;20394;-94
2023/12/05 02:36:00;;;;;;;25.93;15.00;;;;;;;-3.48;100.00;95035.09;7402457;19;20684;-95
2023/12/05 02:38:44;;;;;;;28.40;17.20;;;;;;;-3.23;100.00;95055.09;7404155;19;20403;-94
2023/12/05 02:41:22;;;;;;;29.13;16.70;;;;;;;-3.49;100.00;95005.34;7401086;19;20390;-95
2023/12/05 02:43:59;;;;;;;28.80;18.07;;;;;;;-3.63;100.00;94996.50;7402925;19;20401;-95
2023/12/05 02:46:28;;;;;;;31.63;17.63;;;;;;;-3.28;100.00;95042.19;7402726;19;20382;-94
2023/12/05 02:48:57;;;;;;;29.57;17.67;;;;;;;-3.89;100.00;94965.53;7402318;19;20366;-95
2023/12/05 02:51:25;;;;;;;28.63;17.97;;;;;;;-4.05;100.00;94935.63;7398878;19;20398;-94
2023/12/05 02:53:52;;;;;;;29.50;17.80;;;;;;;-3.73;100.00;94971.53;7400776;19;20903;-94
2023/12/05 02:56:20;;;;;;;32.43;17.20;;;;;;;-3.39;100.00;95004.66;7402520;19;20370;-96
2023/12/05 02:58:47;;;;;;;29.13;18.97;;;;;;;-3.89;100.00;94950.16;7402010;19;20400;-94
2023/12/05 03:01:15;;;;;;;22.70;17.10;;;;;;;-3.71;100.00;94955.91;7400541;19;20413;-94
2023/12/05 03:03:42;;;;;;;22.53;16.57;;;;;;;-3.33;100.00;95037.81;7402408;19;20369;-95
2023/12/05 03:06:10;;;;;;;28.93;16.17;;;;;;;-3.57;100.00;94998.84;7402691;19;20461;-93
2023/12/05 03:08:37;;;;;;;32.47;19.43;;;;;;;-3.72;100.00;94962.06;7399836;19;20386;-94
2023/12/05 03:11:04;;;;;;;29.90;18.30;;;;;;;-3.57;100.00;94985.25;7400471;19;20416;-93
2023/12/05 03:13:40;;;;;;;24.73;15.80;;;;;;;-2.91;100.00;95090.25;7401764;19;20370;-95
2023/12/05 03:16:13;;;;;;;31.33;18.93;;;;;;;-2.88;100.00;95090.53;7401551;19;20418;-94
2023/12/05 03:18:40;;;;;;;28.00;16.80;;;;;;;-3.48;100.00;95001.00;7401407;19;20394;-94
2023/12/05 03:21:08;;;;;;;26.73;16.30;;;;;;;-4.11;100.00;94910.22;7400098;19;20489;-94
2023/12/05 03:23:35;;;;;;;31.17;16.37;;;;;;;-3.92;100.00;94922.44;7403714;19;20375;-94
2023/12/05 03:26:02;;;;;;;29.30;15.10;;;;;;;-3.49;100.00;94982.28;7403800;19;20384;-94
2023/12/05 03:28:30;;;;;;;26.40;16.60;;;;;;;-3.85;100.00;94947.88;7400619;19;20394;-94
2023/12/05 03:30:57;;;;;;;28.73;13.50;;;;;;;-3.44;100.00;95004.63;7401882;19;20417;-94
2023/12/05 03:33:25;;;;;;;26.33;15.90;;;;;;;-3.91;100.00;94936.81;7403155;19;20886;-94
2023/12/05 03:35:52;;;;;;;34.53;17.13;;;;;;;-3.50;100.00;94991.00;7402971;19;20381;-94
2023/12/05 03:38:20;;;;;;;34.57;18.60;;;;;;;-3.87;100.00;94922.50;7401906;19;20407;-94
2023/12/05 03:40:47;;;;;;;29.80;17.17;;;;;;;-3.78;100.00;94934.81;7399810;19;20403;-95
2023/12/05 03:43:15;;;;;;;29.27;19.47;;;;;;;-3.75;100.00;94940.25;7401582;19;20382;-95
2023/12/05 03:45:42;;;;;;;31.90;18.77;;;;;;;-3.85;100.00;94935.84;7401547;19;20374;-96
2023/12/05 03:48:09;;;;;;;32.07;17.97;;;;;;;-3.46;100.00;94988.69;7400418;19;20411;-96
2023/12/05 03:50:37;;;;;;;30.47;17.70;;;;;;;-3.77;100.00;94933.84;7400598;19;20406;-95
2023/12/05 03:53:04;;;;;;;29.10;17.67;;;;;;;-3.39;100.00;95009.78;7400836;19;20706;-95
2023/12/05 03:55:34;;;;;;;28.00;17.60;;;;;;;-2.96;100.00;95071.22;7400185;19;20389;-94
2023/12/05 03:58:02;;;;;;;23.10;16.70;;;;;;;-2.91;100.00;95069.72;7399886;19;20363;-94
2023/12/05 04:00:29;;;;;;;28.50;16.87;;;;;;;-3.90;100.00;94919.66;7399603;19;20369;-96
2023/12/05 04:02:57;;;;;;;31.63;18.63;;;;;;;-3.81;100.00;94936.09;7399481;19;20477;-94
2023/12/05 04:05:24;;;;;;;29.90;18.30;;;;;;;-4.15;100.00;94881.75;7399581;19;20382;-95
2023/12/05 04:07:51;;;;;;;33.20;21.20;;;;;;;-3.58;100.00;94951.16;7398611;19;20395;-94
2023/12/05 04:10:19;;;;;;;31.07;15.67;;;;;;;-3.48;100.00;94978.69;7399201;19;20388;-94
2023/12/05 04:12:46;;;;;;;31.50;18.90;;;;;;;-3.68;100.00;94956.19;7398878;19;20863;-95
2023/12/05 04:15:13;;;;;;;27.93;18.63;;;;;;;-3.92;100.00;94914.75;7399489;19;20387;-95
2023/12/05 04:17:41;;;;;;;30.97;18.37;;;;;;;-3.81;100.00;94933.53;7399044;19;20392;-95
2023/12/05 04:20:10;;;;;;;28.03;20.10;;;;;;;-3.51;100.00;94980.94;7399693;19;20378;-95
2023/12/05 04:22:38;;;;;;;38.37;20.10;;;;;;;-4.12;100.00;94871.03;7397797;19;20425;-95
2023/12/05 04:25:15;;;;;;;28.67;19.63;;;;;;;-3.47;100.00;94984.59;7399077;19;20399;-94
2023/12/05 04:27:57;;;;;;;29.03;18.40;;;;;;;-3.46;100.00;94986.91;7401383;19;20383;-94
2023/12/05 04:30:26;;;;;;;30.30;18.57;;;;;;;-3.66;100.00;94930.31;7399644;19;20369;-95
2023/12/05 04:32:53;;;;;;;27.00;18.00;;;;;;;-3.57;100.00;94949.38;7398471;19;20414;-96
2023/12/05 04:35:21;;;;;;;31.97;19.00;;;;;;;-3.55;100.00;94949.91;7398450;19;20860;-95
2023/12/05 04:37:48;;;;;;;39.67;20.03;;;;;;;-3.57;100.00;94952.72;7398751;19;20406;-95
2023/12/05 04:40:16;;;;;;;32.67;18.90;;;;;;;-3.38;100.00;94989.03;7398729;19;20480;-93
2023/12/05 04:42:43;;;;;;;34.63;20.27;;;;;;;-3.01;100.00;95030.13;7398905;19;20386;-95
2023/12/05 04:45:10;;;;;;;35.83;19.37;;;;;;;-3.68;100.00;94940.03;7398250;19;20383;-94
2023/12/05 04:47:38;;;;;;;31.20;19.50;;;;;;;-3.47;100.00;94969.97;7397930;19;20386;-95
2023/12/05 04:50:05;;;;;;;27.67;17.77;;;;;;;-3.54;100.00;94954.00;7398190;19;20878;-95
2023/12/05 04:52:33;;;;;;;32.23;18.47;;;;;;;-3.61;100.00;94956.78;7396280;19;20415;-95
2023/12/05 04:55:01;;;;;;;29.17;18.03;;;;;;;-2.94;100.00;95060.72;7398628;19;20366;-96
2023/12/05 04:57:28;;;;;;;33.70;20.67;;;;;;;-3.95;100.00;94902.44;7399652;19;20860;-95
2023/12/05 04:59:55;;;;;;;29.77;17.10;;;;;;;-3.47;100.00;94977.69;7397913;19;20382;-95
2023/12/05 05:02:23;;;;;;;27.93;19.07;;;;;;;-3.71;100.00;94937.97;7396974;19;20421;-95
2023/12/05 05:04:50;;;;;;;32.10;17.10;;;;;;;-3.49;100.00;94982.28;7397637;19;20367;-96
2023/12/05 05:07:18;;;;;;;32.00;17.30;;;;;;;-3.42;100.00;94975.16;7397490;19;20881;-96
2023/12/05 05:09:45;;;;;;;29.00;18.10;;;;;;;-3.17;100.00;95002.03;7397571;19;20383;-94
2023/12/05 05:12:13;;;;;;;22.90;15.30;;;;;;;-3.56;100.00;94956.06;7396538;19;20390;-96
2023/12/05 05:14:40;;;;;;;30.23;17.40;;;;;;;-3.34;100.00;94982.41;7396089;19;20364;-95
2023/12/05 05:17:07;;;;;;;29.80;17.40;;;;;;;-3.34;100.00;94958.56;7396996;19;20389;-96
2023/12/05 05:19:35;;;;;;;25.30;17.17;;;;;;;-3.31;100.00;94979.34;7397597;19;20382;-95
2023/12/05 05:22:02;;;;;;;26.70;15.57;;;;;;;-3.17;100.00;95000.22;7395642;19;20407;-96
2023/12/05 05:24:30;;;;;;;39.63;20.53;;;;;;;-3.27;100.00;94985.53;7397147;19;20870;-95
2023/12/05 05:26:58;;;;;;;31.40;17.30;;;;;;;-3.23;100.00;94983.25;7399292;19;20453;-94
2023/12/05 05:29:25;;;;;;;26.40;17.00;;;;;;;-3.39;100.00;94943.09;7396063;19;20396;-95
2023/12/05 05:31:53;;;;;;;34.90;18.10;;;;;;;-3.22;100.00;94972.00;7396635;19;20411;-94
2023/12/05 05:34:21;;;;;;;26.93;17.73;;;;;;;-3.38;100.00;94944.66;7397604;19;20378;-95
2023/12/05 05:36:48;;;;;;;28.30;18.80;;;;;;;-3.51;100.00;94909.16;7396656;19;20389;-95
2023/12/05 05:39:16;;;;;;;31.27;18.37;;;;;;;-3.34;100.00;94945.72;7396665;19;20385;-94
2023/12/05 05:41:43;;;;;;;25.83;16.90;;;;;;;-3.32;100.00;94933.44;7395754;19;20447;-95
2023/12/05 05:44:11;;;;;;;29.57;19.27;;;;;;;-3.29;100.00;94941.41;7398470;19;20444;-96
2023/12/05 05:46:38;;;;;;;26.13;17.13;;;;;;;-2.76;100.00;95000.53;7396736;19;20395;-95
2023/12/05 05:49:07;;;;;;;24.00;16.93;;;;;;;-3.19;100.00;94935.59;7394916;19;20391;-95
2023/12/05 05:51:35;;;;;;;33.00;17.60;;;;;;;-2.99;100.00;94958.03;7395148;19;20406;-94
2023/12/05 05:54:03;;;;;;;30.27;18.17;;;;;;;-2.91;100.00;94972.19;7395277;19;20396;-94
2023/12/05 05:56:38;;;;;;;26.97;15.30;;;;;;;-2.45;100.00;95045.13;7398023;19;20399;-95
2023/12/05 05:59:06;;;;;;;24.43;15.50;;;;;;;-3.12;100.00;94928.44;7396471;19;20724;-94
2023/12/05 06:01:33;;;;;;;20.63;14.97;;;;;;;-3.05;100.00;94959.03;7395372;19;20398;-95
2023/12/05 06:04:00;;;;;;;26.13;16.90;;;;;;;-3.36;100.00;94896.50;7396607;19;20355;-95
2023/12/05 06:06:27;;;;;;;20.70;14.80;;;;;;;-3.29;100.00;94892.69;7396833;19;20454;-93
2023/12/05 06:08:55;;;;;;;21.43;16.67;;;;;;;-2.77;100.00;94984.34;7395454;19;20371;-84
2023/12/05 06:11:22;;;;;;;26.10;15.80;;;;;;;-2.29;100.00;95041.66;7397533;19;20428;-83
2023/12/05 06:13:51;;;;;;;26.77;17.57;;;;;;;-2.76;100.00;94983.34;7397172;19;20362;-84
2023/12/05 06:16:19;;;;;;;26.80;17.53;;;;;;;-2.69;100.00;94988.28;7396736;19;20856;-84
2023/12/05 06:18:48;;;;;;;26.60;17.30;;;;;;;-3.01;100.00;94932.63;7396129;19;20386;-87
2023/12/05 06:21:16;;;;;;;26.50;18.17;;;;;;;-3.07;100.00;94928.47;7393371;19;20422;-87
2023/12/05 06:23:43;;;;;;;33.37;19.83;;;;;;;-3.43;100.00;94865.16;7394566;19;20386;-87
2023/12/05 06:26:10;;;;;;;32.57;18.30;;;;;;;-2.12;100.00;95069.75;7394728;19;20708;-86
2023/12/05 06:28:38;;;;;;;27.70;16.23;;;;;;;-2.36;100.00;95029.03;7400212;19;20411;-87
2023/12/05 06:31:05;;;;;;;24.67;17.73;;;;;;;-2.19;100.00;95038.34;7401042;19;20442;-87
2023/12/05 06:33:32;;;;;;;28.63;18.53;;;;;;;-3.03;100.00;94926.97;7401348;19;20676;-86
2023/12/05 06:36:00;;;;;;;25.43;18.13;;;;;;;-2.39;100.00;95034.66;7401459;19;20374;-86
2023/12/05 06:38:27;;;;;;;30.57;18.07;;;;;;;-2.65;100.00;94982.38;7401069;19;20392;-87
2023/12/05 06:40:55;;;;;;;27.23;16.73;;;;;;;-2.79;100.00;94942.00;7400029;19;20394;-87
2023/12/05 06:43:22;;;;;;;25.67;15.93;;;;;;;-2.59;100.00;94957.50;7401410;19;20413;-87
2023/12/05 06:45:50;;;;;;;22.20;16.17;;;;;;;-2.79;100.00;94963.31;7400593;19;20389;-86
2023/12/05 06:48:17;;;;;;;29.33;17.00;;;;;;;-3.47;100.00;94852.06;7403122;19;20393;-93
2023/12/05 06:50:48;;;;;;;23.37;17.10;;;;;;;-2.90;100.00;94941.16;7402715;19;20393;-92
2023/12/05 06:53:15;;;;;;;25.60;16.27;;;;;;;-3.05;100.00;94929.00;7401329;19;20380;-93
2023/12/05 06:55:42;;;;;;;28.53;17.13;;;;;;;-2.59;100.00;94998.56;7402447;19;20378;-93
2023/12/05 06:58:09;;;;;;;27.27;14.60;;;;;;;-2.55;100.00;94997.06;7403371;19;20378;-92
2023/12/05 07:00:37;;;;;;;24.63;16.10;;;;;;;-2.56;100.00;94982.69;7405663;19;20406;-93
2023/12/05 07:03:05;;;;;;;29.07;18.00;;;;;;;-1.95;100.00;95064.44;7405758;19;20383;-94
2023/12/05 07:05:36;;;;;;;25.43;17.23;;;;;;;-2.11;100.00;95050.75;7406467;19;20397;-92
2023/12/05 07:08:06;;;;;;;27.70;19.10;;;;;;;-2.93;100.00;94917.78;7403087;19;20382;-93
2023/12/05 07:10:34;;;;;;;22.40;16.27;;;;;;;-1.91;100.00;95075.75;7402685;19;20390;-92
2023/12/05 07:13:02;;;;;;;31.80;18.40;;;;;;;-2.43;100.00;95009.72;7403008;19;20379;-93
2023/12/05 07:15:30;;;;;;;22.83;14.17;;;;;;;-1.98;100.00;95065.72;7403572;19;20385;-92
2023/12/05 07:17:58;;;;;;;20.83;14.33;;;;;;;-2.49;100.00;95008.13;7402606;19;20387;-92
2023/12/05 07:20:25;;;;;;;24.60;16.43;;;;;;;-2.55;100.00;94975.78;7401481;19;20390;-92
2023/12/05 07:22:52;;;;;;;24.93;16.97;;;;;;;-2.34;100.00;95005.66;7401380;19;20351;-92
2023/12/05 07:25:20;;;;;;;27.50;16.73;;;;;;;-2.27;100.00;95016.50;7401004;19;20361;-92
2023/12/05 07:27:47;;;;;;;21.83;15.50;;;;;;;-2.56;100.00;94987.84;7401424;19;20376;-94
2023/12/05 07:30:15;;;;;;;27.30;16.87;;;;;;;-2.16;100.00;95051.50;7399853;19;20392;-92
2023/12/05 07:32:42;;;;;;;31.23;20.60;;;;;;;-2.46;100.00;94982.72;7402820;19;20717;-92
2023/12/05 07:35:10;;;;;;;28.93;19.87;;;;;;;-2.82;100.00;94924.53;7402423;19;20458;-92
2023/12/05 07:37:37;;;;;;;28.53;17.43;;;;;;;-2.09;100.00;95016.06;7400448;19;20372;-93
2023/12/05 07:40:08;;;;;;;29.30;16.87;;;;;;;-2.13;100.00;94991.13;7400953;19;20389;-94
2023/12/05 07:42:35;;;;;;;24.77;18.07;;;;;;;-1.81;100.00;95055.22;7398676;19;20473;-92
2023/12/05 07:45:05;;;;;;;20.33;14.30;;;;;;;-1.61;100.00;95051.97;7400526;19;20393;-91
2023/12/05 07:47:32;;;;;;;24.20;15.27;;;;;;;-1.30;100.00;95114.53;7400231;19;20436;-94
2023/12/05 07:50:00;;;;;;;22.10;15.97;;;;;;;-1.58;100.00;95057.38;7398270;19;20397;-93
2023/12/05 07:52:27;;;;;;;27.00;16.77;;;;;;;-1.20;100.00;95107.63;7399085;19;20473;-93
2023/12/05 07:54:55;;;;;;;24.03;15.27;;;;;;;-1.72;100.00;95035.72;7399211;19;20430;-94
2023/12/05 07:57:22;;;;;;;23.00;16.50;;;;;;;-1.96;100.00;94999.41;7402001;19;20733;-92
2023/12/05 07:59:50;;;;;;;27.93;18.73;;;;;;;-1.67;100.00;95042.69;7401979;19;20372;-92
2023/12/05 08:02:17;;;;;;;23.53;15.97;;;;;;;-1.51;100.00;95063.06;7399493;19;20414;-92
2023/12/05 08:04:45;;;;;;;24.53;15.60;;;;;;;-1.53;100.00;95064.31;7400860;19;20381;-91
2023/12/05 08:07:12;;;;;;;23.70;16.37;;;;;;;-2.20;100.00;94931.47;7404429;19;20442;-93
2023/12/05 08:09:40;;;;;;;21.40;14.30;;;;;;;-1.20;100.00;95075.97;7401677;19;20395;-92
2023/12/05 08:12:07;;;;;;;19.13;14.37;;;;;;;-1.75;100.00;94992.53;7403580;19;20463;-92
2023/12/05 08:14:34;;;;;;;23.13;15.13;;;;;;;-1.60;100.00;94992.56;7400376;19;20366;-93
2023/12/05 08:17:03;;;;;;;23.37;15.77;;;;;;;-1.71;100.00;94980.72;7400051;19;20391;-92
2023/12/05 08:19:32;;;;;;;25.70;17.30;;;;;;;-1.47;100.00;95019.59;7398830;19;20383;-91
2023/12/05 08:21:59;;;;;;;31.90;17.23;;;;;;;-1.19;100.00;95036.34;7397811;19;20735;-93
2023/12/05 08:24:26;;;;;;;37.10;21.43;;;;;;;-0.87;100.00;95098.66;7400933;19;20390;-92
2023/12/05 08:26:54;;;;;;;36.97;22.67;;;;;;;-1.16;100.00;95053.84;7399569;19;20393;-92
2023/12/05 08:29:21;;;;;;;28.63;19.73;;;;;;;-1.13;100.00;95030.16;7397993;19;20381;-93
2023/12/05 08:31:48;;;;;;;25.10;16.33;;;;;;;-2.11;100.00;94899.91;7397997;19;20403;-92
2023/12/05 08:34:16;;;;;;;30.10;16.80;;;;;;;-1.69;100.00;94957.31;7398605;19;20382;-93
2023/12/05 08:36:46;;;;;;;24.10;17.00;;;;;;;-0.89;100.00;95054.38;7399413;19;20374;-94
2023/12/05 08:39:13;;;;;;;29.40;18.20;;;;;;;-0.59;100.00;95088.91;7399100;19;20362;-92
2023/12/05 08:41:40;;;;;;;27.67;21.27;;;;;;;-0.74;100.00;95074.22;7397650;19;20414;-93
2023/12/05 08:44:08;;;;;;;50.33;28.73;;;;;;;-1.08;100.00;95026.84;7398320;19;20377;-92
2023/12/05 08:46:35;;;;;;;40.43;22.67;;;;;;;-1.44;100.00;94982.31;7398839;19;20436;-93
2023/12/05 08:49:03;;;;;;;17.90;14.87;;;;;;;-0.98;100.00;95068.78;7396039;19;20382;-94
2023/12/05 08:51:30;;;;;;;24.27;16.43;;;;;;;-1.00;100.00;95063.13;7397743;19;20882;-93
2023/12/05 08:53:58;;;;;;;23.50;15.90;;;;;;;-1.21;100.00;95010.09;7397254;19;20394;-93
2023/12/05 08:56:25;;;;;;;24.97;15.50;;;;;;;-1.02;100.00;95023.22;7398857;19;20394;-93
2023/12/05 08:58:53;;;;;;;17.90;14.27;;;;;;;-0.75;100.00;95043.56;7398690;19;20387;-93
2023/12/05 09:01:23;;;;;;;23.13;17.27;;;;;;;-0.96;100.00;95035.84;7399032;19;20702;-93
2023/12/05 09:03:50;;;;;;;25.00;16.97;;;;;;;-0.39;100.00;95124.97;7397873;19;20367;-93
2023/12/05 09:06:18;;;;;;;24.10;16.60;;;;;;;-1.03;100.00;95034.56;7397895;19;20390;-93
2023/12/05 09:08:45;;;;;;;28.00;17.50;;;;;;;-0.61;100.00;95078.84;7398042;19;20408;-93
2023/12/05 09:11:16;;;;;;;21.50;15.87;;;;;;;-0.88;100.00;95050.78;7397383;19;20434;-93
2023/12/05 09:13:43;;;;;;;21.70;16.50;;;;;;;-0.76;100.00;95060.06;7398365;19;20378;-93
2023/12/05 09:16:11;;;;;;;26.30;18.27;;;;;;;-0.76;100.00;95067.78;7397531;19;20391;-93
2023/12/05 09:18:38;;;;;;;28.30;18.03;;;;;;;-0.87;100.00;95051.56;7398144;19;20366;-93
2023/12/05 09:21:06;;;;;;;28.03;15.17;;;;;;;-0.72;100.00;95069.56;7397235;19;20747;-92
2023/12/05 09:23:34;;;;;;;23.03;16.40;;;;;;;-1.03;100.00;95004.44;7398207;19;20465;-93
2023/12/05 09:26:02;;;;;;;22.33;16.17;;;;;;;-0.99;100.00;95033.78;7397262;19;20375;-93
2023/12/05 09:28:31;;;;;;;25.30;16.93;;;;;;;-0.08;100.00;95145.56;7397534;19;20389;-93
2023/12/05 09:30:59;;;;;;;22.30;15.90;;;;;;;-0.26;100.00;95085.78;7396151;19;20443;-92
2023/12/05 09:33:26;;;;;;;25.80;17.00;;;;;;;-0.41;100.00;95030.94;7397798;19;20866;-93
2023/12/05 09:35:53;;;;;;;23.23;16.53;;;;;;;-0.09;100.00;95077.00;7397615;19;20401;-93
2023/12/05 09:38:21;;;;;;;24.63;18.73;;;;;;;0.33;100.00;95135.94;7397850;19;20379;-93
2023/12/05 09:40:51;;;;;;;22.97;17.10;;;;;;;-0.46;100.00;95031.69;7397580;19;20406;-93
2023/12/05 09:43:23;;;;;;;24.70;16.97;;;;;;;-0.12;100.00;95051.75;7397767;19;20362;-93
2023/12/05 09:45:59;;;;;;;20.73;16.53;;;;;;;-0.26;100.00;95029.09;7397950;19;20691;-93
2023/12/05 09:48:31;;;;;;;27.10;18.63;;;;;;;0.36;100.00;95158.66;7398788;19;20758;-92
2023/12/05 09:50:59;;;;;;;23.70;16.93;;;;;;;-0.68;100.00;95013.97;7395459;19;20458;-93
2023/12/05 09:53:28;;;;;;;26.87;17.53;;;;;;;-0.86;100.00;94979.19;7396096;19;20705;-93
2023/12/05 09:55:55;;;;;;;25.40;17.50;;;;;;;-0.89;100.00;94971.22;7397505;19;20379;-94
2023/12/05 09:58:24;;;;;;;21.03;16.13;;;;;;;0.13;100.00;95090.38;7397077;19;20387;-94
2023/12/05 10:00:52;;;;;;;21.90;16.10;;;;;;;-0.14;100.00;95036.53;7399296;19;20406;-93
2023/12/05 10:03:22;;;;;;;22.20;16.03;;;;;;;0.31;100.00;95104.50;7404410;19;20382;-93
2023/12/05 10:05:51;;;;;;;27.13;17.27;;;;;;;-0.18;100.00;95034.72;7404488;19;20444;-93
2023/12/05 10:08:20;;;;;;;26.83;18.10;;;;;;;0.55;100.00;95118.34;7404168;19;20383;-93
2023/12/05 10:10:48;;;;;;;20.53;14.70;;;;;;;-0.08;100.00;94983.91;7403772;19;20406;-93
2023/12/05 10:13:17;;;;;;;24.43;17.33;;;;;;;1.04;100.00;95138.28;7404321;19;20360;-93
2023/12/05 10:15:44;;;;;;;28.23;18.10;;;;;;;0.07;100.00;95016.59;7404690;19;20386;-93
2023/12/05 10:18:12;;;;;;;26.90;19.00;;;;;;;0.52;100.00;95059.53;7405166;19;20698;-93
2023/12/05 10:20:41;;;;;;;28.60;16.20;;;;;;;0.17;100.00;95000.31;7406377;19;20394;-93
2023/12/05 10:23:09;;;;;;;24.90;19.43;;;;;;;0.74;100.00;95066.88;7407424;19;20405;-92
2023/12/05 10:25:36;;;;;;;32.77;18.73;;;;;;;0.30;100.00;95026.31;7407041;19;20402;-93
2023/12/05 10:28:08;;;;;;;22.27;18.20;;;;;;;1.37;100.00;95125.66;7404538;19;20382;-93
2023/12/05 10:30:40;;;;;;;25.90;17.53;;;;;;;0.99;100.00;95089.22;7412657;19;20911;-93
2023/12/05 10:33:13;;;;;;;26.10;17.10;;;;;;;0.80;100.00;95080.53;7406156;19;20382;-93
2023/12/05 10:35:46;;;;;;;32.20;16.83;;;;;;;0.89;100.00;95061.63;7407092;19;20390;-93
2023/12/05 10:38:19;;;;;;;22.67;16.47;;;;;;;1.39;100.00;95126.94;7404534;19;20690;-93
2023/12/05 10:40:55;;;;;;;27.20;18.87;;;;;;;1.45;100.00;95117.34;7405881;19;20368;-93
2023/12/05 10:43:26;;;;;;;24.83;17.00;;;;;;;0.62;100.00;95040.59;7404462;19;20875;-92
2023/12/05 10:45:55;;;;;;;25.90;17.77;;;;;;;0.56;100.00;95039.09;7403506;19;20398;-93
2023/12/05 10:48:23;;;;;;;29.83;17.77;;;;;;;0.66;100.00;95040.88;7406077;19;20381;-93
2023/12/05 10:50:52;;;;;;;25.10;18.63;;;;;;;0.57;100.00;95007.88;7403798;19;20406;-93
2023/12/05 10:53:20;;;;;;;23.20;16.87;;;;;;;0.86;100.00;95059.59;7402990;19;20416;-93
2023/12/05 10:55:49;;;;;;;21.90;16.80;;;;;;;0.31;100.00;94960.78;7402793;19;20388;-93
2023/12/05 10:58:18;;;;;;;24.93;16.73;;;;;;;0.18;100.00;94919.34;7402667;19;20375;-94
2023/12/05 11:00:48;;;;;;;24.40;18.50;;;;;;;1.05;100.00;95031.31;7404916;19;20378;-93
2023/12/05 11:03:16;;;;;;;35.50;17.80;;;;;;;-0.20;100.00;94846.81;7404701;19;20400;-93
2023/12/05 11:05:43;;;;;;;26.30;17.90;;;;;;;1.38;100.00;95080.69;7418176;19;20383;-93
2023/12/05 11:08:11;;;;;;;28.93;17.83;;;;;;;0.38;100.00;94866.84;7403922;19;20373;-93
2023/12/05 11:10:39;;;;;;;24.60;18.43;;;;;;;1.86;100.00;95070.47;7400751;19;20458;-93
2023/12/05 11:13:12;;;;;;;31.87;18.37;;;;;;;0.08;100.00;94880.69;7399886;19;20403;-93
2023/12/05 11:15:44;;;;;;;27.47;20.03;;;;;;;1.92;100.00;95132.22;7403390;19;20380;-93